Time;durP1;ratioP1;P1;durP2;ratioP2;P2;SDS_P1;SDS_P2;PMS_P1;PMS_P2;Temp;Humidity;BMP_temperature;BMP_pressure;BME280_temperature;BME280_humidity;BME280_pressure;Samples;Min_cycle;Max_cycle;Signal;HPM_P1;HPM_P2
2022/06/18 00:14:48;;;;;;;11.73;7.73;;;;;;;15.85;96.56;100902.42;740286;1154;114953;-81
2022/06/18 00:29:51;;;;;;;12.65;6.75;;;;;;;15.47;97.30;100876.17;739856;1153;115752;-81
2022/06/18 00:44:57;;;;;;;12.10;7.07;;;;;;;15.60;98.12;100879.25;739866;1155;115260;-80
2022/06/18 01:00:11;;;;;;;16.00;9.40;;;;;;;15.46;97.77;100867.39;740121;1155;115364;-79
2022/06/18 01:15:20;;;;;;;21.63;10.33;;;;;;;15.34;98.27;100852.77;739478;1155;114869;-80
2022/06/18 01:30:27;;;;;;;14.58;7.75;;;;;;;15.46;98.44;100840.95;739753;1155;114995;-80
2022/06/18 01:45:35;;;;;;;15.00;8.55;;;;;;;15.42;98.43;100818.45;739601;1155;115079;-80
2022/06/18 02:00:41;;;;;;;16.50;6.85;;;;;;;15.50;98.34;100808.94;739650;1155;114754;-79
2022/06/18 02:15:45;;;;;;;18.65;9.23;;;;;;;15.49;98.49;100781.65;740018;1155;115359;-80
2022/06/18 02:30:50;;;;;;;19.35;9.80;;;;;;;15.53;99.50;100784.83;739763;1154;114139;-79
2022/06/18 02:45:55;;;;;;;17.38;9.10;;;;;;;15.53;98.61;100787.47;739980;1155;115308;-79
2022/06/18 03:01:06;;;;;;;19.43;9.88;;;;;;;15.40;99.43;100788.72;740685;1155;114992;-80
2022/06/18 03:16:11;;;;;;;18.35;10.20;;;;;;;15.79;99.68;100779.52;740039;1155;114566;-79
2022/06/18 03:31:13;;;;;;;20.23;9.57;;;;;;;16.21;98.96;100778.74;739742;1155;114906;-81
2022/06/18 03:46:17;;;;;;;13.13;6.95;;;;;;;16.39;98.46;100772.50;739825;1155;114770;-78
2022/06/18 04:01:27;;;;;;;11.70;7.20;;;;;;;16.68;98.50;100761.49;739688;1155;115056;-78
2022/06/18 04:16:30;;;;;;;;;;;;;;;17.02;99.79;100763.17;740072;1154;115875;-78
2022/06/18 04:31:32;;;;;;;11.23;6.55;;;;;;;17.21;98.30;100767.33;740279;1154;101576;-78
2022/06/18 04:46:34;;;;;;;12.40;7.53;;;;;;;17.51;98.98;100762.28;740058;1155;114125;-78
2022/06/18 05:01:37;;;;;;;16.08;7.60;;;;;;;17.88;99.24;100778.61;740619;1155;114640;-80
2022/06/18 05:16:39;;;;;;;15.18;8.65;;;;;;;18.26;99.82;100779.63;740378;1153;115634;-76
2022/06/18 05:31:42;;;;;;;14.65;8.85;;;;;;;18.51;100.00;100768.88;740232;1155;114241;-76
2022/06/18 05:46:45;;;;;;;16.77;9.47;;;;;;;18.97;100.00;100743.35;740977;1154;115765;-75
2022/06/18 06:01:47;;;;;;;12.55;7.05;;;;;;;19.65;100.00;100728.20;740206;1154;115732;-74
2022/06/18 06:16:50;;;;;;;10.15;7.33;;;;;;;19.96;97.28;100719.19;740223;1155;115636;-77
2022/06/18 06:31:52;;;;;;;12.73;7.38;;;;;;;20.48;95.70;100732.45;740399;1155;115417;-78
2022/06/18 06:46:54;;;;;;;12.38;6.70;;;;;;;20.89;94.54;100702.50;740419;1155;115320;-82
2022/06/18 07:01:57;;;;;;;8.65;5.50;;;;;;;21.40;91.30;100702.23;742628;1155;114061;-84
2022/06/18 07:16:59;;;;;;;5.48;4.18;;;;;;;22.27;89.57;100693.77;743206;1155;114726;-84
2022/06/18 07:32:13;;;;;;;5.63;3.50;;;;;;;22.88;86.59;100684.77;742868;1154;113895;-83
2022/06/18 07:47:18;;;;;;;11.53;5.60;;;;;;;23.63;83.46;100680.92;742580;1154;114383;-84
2022/06/18 08:02:21;;;;;;;6.98;4.45;;;;;;;23.97;80.05;100646.80;742480;1155;114024;-80
2022/06/18 08:17:25;;;;;;;5.87;3.27;;;;;;;24.54;79.53;100629.89;742350;1155;113978;-83
2022/06/18 08:32:28;;;;;;;3.43;2.95;;;;;;;24.96;75.32;100602.51;742052;1155;114429;-86
2022/06/18 08:47:38;;;;;;;6.03;2.90;;;;;;;25.29;72.88;100571.78;741480;1155;114100;-86
2022/06/18 09:02:44;;;;;;;5.58;2.40;;;;;;;25.41;69.13;100552.00;742773;1154;114091;-87
2022/06/18 09:18:20;;;;;;;4.53;2.50;;;;;;;25.85;66.33;100534.84;744090;1155;115616;-87
2022/06/18 09:33:39;;;;;;;4.25;2.15;;;;;;;26.46;66.18;100505.10;740412;1155;115552;-86
2022/06/18 09:48:42;;;;;;;;;;;;;;;26.95;60.46;100485.95;741115;1155;113537;-88
2022/06/18 10:19:34;;;;;;;4.03;2.83;;;;;;;28.98;59.96;100463.49;740424;1155;114462;-85
2022/06/18 10:35:21;;;;;;;5.93;3.83;;;;;;;29.63;57.52;100447.36;741551;1155;114291;-85
2022/06/18 10:50:24;;;;;;;6.68;3.25;;;;;;;29.00;56.25;100420.84;742259;1155;116108;-84
2022/06/18 11:05:39;;;;;;;14.37;6.77;;;;;;;28.45;58.25;100409.14;742813;1155;114182;-86
2022/06/18 11:21:04;;;;;;;4.78;2.60;;;;;;;28.09;56.65;100391.72;741362;1155;115670;-85
2022/06/18 11:36:15;;;;;;;4.38;2.50;;;;;;;28.15;58.34;100377.22;741649;1155;114614;-83
2022/06/18 11:51:40;;;;;;;7.73;3.40;;;;;;;28.34;58.65;100367.75;740621;1154;115704;-75
2022/06/18 12:06:59;;;;;;;2.38;1.88;;;;;;;28.99;55.99;100367.11;740655;1155;115874;-74
2022/06/18 12:22:39;;;;;;;3.33;2.33;;;;;;;29.71;54.01;100336.05;740713;1155;115171;-75
2022/06/18 12:38:00;;;;;;;2.63;1.93;;;;;;;29.65;54.73;100312.77;740081;1154;115665;-73
2022/06/18 12:53:21;;;;;;;8.68;4.65;;;;;;;30.79;52.46;100303.17;740648;1155;115388;-75
2022/06/18 13:08:44;;;;;;;4.43;1.97;;;;;;;30.55;51.84;100275.80;740433;1155;114985;-76
2022/06/18 13:39:16;;;;;;;1.90;1.30;;;;;;;30.56;49.68;100241.45;740672;1153;115048;-76
2022/06/18 13:54:18;;;;;;;5.90;2.80;;;;;;;30.87;52.23;100207.86;741984;1153;114697;-79
2022/06/18 14:09:25;;;;;;;3.58;2.00;;;;;;;31.39;52.04;100171.74;743406;1154;114125;-78
2022/06/18 14:24:46;;;;;;;5.30;2.05;;;;;;;31.17;51.28;100135.80;741235;1155;114550;-79
2022/06/18 14:39:56;;;;;;;8.05;1.90;;;;;;;31.41;50.21;100129.73;740496;1155;115001;-73
2022/06/18 14:55:26;;;;;;;3.85;1.88;;;;;;;32.00;48.05;100138.07;740221;1155;114792;-75
2022/06/18 15:10:31;;;;;;;6.18;1.33;;;;;;;32.30;45.59;100131.63;739994;1155;114721;-73
2022/06/18 15:25:42;;;;;;;1.65;1.15;;;;;;;32.09;46.38;100108.45;740033;1155;114167;-73
2022/06/18 15:40:44;;;;;;;3.53;1.15;;;;;;;32.15;46.88;100091.84;740726;1155;114453;-73
2022/06/18 15:55:51;;;;;;;1.93;1.70;;;;;;;32.17;47.11;100072.59;740464;1155;114891;-73
2022/06/18 16:10:53;;;;;;;1.70;1.28;;;;;;;32.22;47.76;100066.33;740240;1155;115523;-73
2022/06/18 16:25:59;;;;;;;2.08;1.30;;;;;;;32.15;48.60;100061.18;740573;1155;115563;-75
2022/06/18 16:41:10;;;;;;;1.80;1.25;;;;;;;31.68;49.50;100036.36;741588;1155;114545;-74
2022/06/18 16:56:14;;;;;;;3.35;1.30;;;;;;;31.39;51.43;100023.52;740505;1155;114157;-75
2022/06/18 17:11:17;;;;;;;4.08;1.40;;;;;;;30.73;52.92;100021.94;740958;1155;115062;-73
2022/06/18 17:41:40;;;;;;;6.18;2.55;;;;;;;29.50;54.78;100015.52;739964;1155;114436;-73
2022/06/18 17:56:43;;;;;;;4.15;1.78;;;;;;;29.09;55.63;99993.77;740589;1155;114603;-72
2022/06/18 18:11:46;;;;;;;1.53;1.40;;;;;;;28.72;56.36;99985.56;740237;1155;115154;-74
2022/06/18 18:26:51;;;;;;;3.73;1.43;;;;;;;28.41;57.51;99984.56;742280;1153;115272;-72
2022/06/18 18:41:54;;;;;;;6.33;1.73;;;;;;;28.08;58.14;99985.72;740932;1152;114706;-74
2022/06/18 18:56:57;;;;;;;112.15;34.83;;;;;;;27.81;59.94;99989.27;740628;1155;114994;-73
2022/06/18 19:27:25;;;;;;;25.23;11.55;;;;;;;26.89;62.85;100008.76;740669;1155;114458;-74
2022/06/18 19:42:30;;;;;;;17.30;8.03;;;;;;;26.46;63.69;100015.69;740776;1155;115542;-73
2022/06/18 19:57:33;;;;;;;76.93;38.60;;;;;;;26.14;64.82;100016.30;740696;1154;114731;-75
2022/06/18 20:12:37;;;;;;;11.60;7.78;;;;;;;25.62;65.92;100069.14;740718;1153;115910;-74
2022/06/18 20:27:40;;;;;;;8.47;5.23;;;;;;;25.47;66.25;100103.74;740581;1153;114472;-72
2022/06/18 20:42:43;;;;;;;7.23;4.23;;;;;;;25.15;66.98;100120.25;741023;1154;114148;-74
2022/06/18 20:57:48;;;;;;;8.75;4.85;;;;;;;24.75;68.26;100122.60;740585;1154;115228;-74
2022/06/18 21:12:50;;;;;;;13.85;6.80;;;;;;;24.52;69.34;100127.92;740516;1153;114169;-73
2022/06/18 21:27:53;;;;;;;25.48;16.45;;;;;;;24.07;69.83;100130.06;740352;1153;114375;-73
2022/06/18 21:42:55;;;;;;;14.25;9.00;;;;;;;23.50;72.19;100113.48;740572;1154;116097;-75
2022/06/18 21:58:02;;;;;;;11.73;8.20;;;;;;;23.24;72.96;100118.93;740227;1153;115014;-74
2022/06/18 22:28:28;;;;;;;8.20;4.70;;;;;;;22.36;75.61;100117.26;740468;1155;116075;-73
2022/06/18 22:43:31;;;;;;;9.73;5.45;;;;;;;22.09;77.01;100126.23;740332;1153;115856;-73
2022/06/18 22:58:35;;;;;;;11.97;6.83;;;;;;;21.75;79.17;100130.94;740011;1154;114960;-74
2022/06/18 23:13:37;;;;;;;15.08;8.08;;;;;;;21.68;80.08;100138.14;740005;1155;114281;-74
2022/06/18 23:28:42;;;;;;;8.00;5.70;;;;;;;21.30;81.13;100144.22;740105;1153;115656;-74
2022/06/18 23:43:46;;;;;;;6.43;5.13;;;;;;;21.34;81.86;100126.77;740066;1154;115700;-73
2022/06/18 23:58:49;;;;;;;7.90;4.80;;;;;;;21.08;82.03;100130.31;739731;1154;114206;-73
